sensor_id;sensor_type;location;lat;lon;timestamp;P1;durP1;ratioP1;P2;durP2;ratioP2
54627;SDS011;40525;55.926;21.066;2023-08-06T00:03:21;4.50;;;1.60;;
54627;SDS011;40525;55.926;21.066;2023-08-06T00:05:49;3.50;;;1.50;;
54627;SDS011;40525;55.926;21.066;2023-08-06T00:08:16;2.70;;;1.70;;
54627;SDS011;40525;55.926;21.066;2023-08-06T00:10:43;3.50;;;1.80;;
54627;SDS011;40525;55.926;21.066;2023-08-06T00:13:10;2.70;;;1.50;;
54627;SDS011;40525;55.926;21.066;2023-08-06T00:15:37;3.30;;;1.70;;
54627;SDS011;40525;55.926;21.066;2023-08-06T00:18:04;4.10;;;1.70;;
54627;SDS011;40525;55.926;21.066;2023-08-06T00:20:31;5.30;;;1.60;;
54627;SDS011;40525;55.926;21.066;2023-08-06T00:22:59;3.70;;;1.60;;
54627;SDS011;40525;55.926;21.066;2023-08-06T00:25:43;4.10;;;2.00;;
54627;SDS011;40525;55.926;21.066;2023-08-06T00:28:10;2.10;;;1.60;;
54627;SDS011;40525;55.926;21.066;2023-08-06T00:30:37;3.80;;;1.60;;
54627;SDS011;40525;55.926;21.066;2023-08-06T00:33:05;3.90;;;1.50;;
54627;SDS011;40525;55.926;21.066;2023-08-06T00:35:32;2.60;;;1.60;;
54627;SDS011;40525;55.926;21.066;2023-08-06T00:37:59;1.90;;;1.50;;
54627;SDS011;40525;55.926;21.066;2023-08-06T00:40:26;5.40;;;1.60;;
54627;SDS011;40525;55.926;21.066;2023-08-06T00:42:55;3.80;;;1.40;;
54627;SDS011;40525;55.926;21.066;2023-08-06T00:45:22;2.10;;;1.50;;
54627;SDS011;40525;55.926;21.066;2023-08-06T00:47:50;1.80;;;1.30;;
54627;SDS011;40525;55.926;21.066;2023-08-06T00:50:18;4.40;;;1.80;;
54627;SDS011;40525;55.926;21.066;2023-08-06T00:52:48;3.00;;;1.50;;
54627;SDS011;40525;55.926;21.066;2023-08-06T00:55:16;3.70;;;1.80;;
54627;SDS011;40525;55.926;21.066;2023-08-06T00:57:44;3.80;;;1.80;;
54627;SDS011;40525;55.926;21.066;2023-08-06T01:00:11;5.20;;;1.90;;
54627;SDS011;40525;55.926;21.066;2023-08-06T01:02:39;3.00;;;1.70;;
54627;SDS011;40525;55.926;21.066;2023-08-06T01:05:06;2.40;;;1.30;;
54627;SDS011;40525;55.926;21.066;2023-08-06T01:07:37;3.00;;;1.70;;
54627;SDS011;40525;55.926;21.066;2023-08-06T01:10:14;4.30;;;1.90;;
54627;SDS011;40525;55.926;21.066;2023-08-06T01:13:18;3.60;;;1.50;;
54627;SDS011;40525;55.926;21.066;2023-08-06T01:16:04;3.10;;;1.60;;
54627;SDS011;40525;55.926;21.066;2023-08-06T01:18:33;3.00;;;1.60;;
54627;SDS011;40525;55.926;21.066;2023-08-06T01:21:00;4.00;;;1.90;;
54627;SDS011;40525;55.926;21.066;2023-08-06T01:23:28;5.70;;;1.80;;
54627;SDS011;40525;55.926;21.066;2023-08-06T01:25:59;3.30;;;1.50;;
54627;SDS011;40525;55.926;21.066;2023-08-06T01:28:59;3.30;;;1.70;;
54627;SDS011;40525;55.926;21.066;2023-08-06T01:31:37;5.10;;;1.90;;
54627;SDS011;40525;55.926;21.066;2023-08-06T01:34:06;6.00;;;1.80;;
54627;SDS011;40525;55.926;21.066;2023-08-06T01:36:48;2.30;;;1.60;;
54627;SDS011;40525;55.926;21.066;2023-08-06T01:39:15;3.60;;;1.90;;
54627;SDS011;40525;55.926;21.066;2023-08-06T01:41:42;3.80;;;1.90;;
54627;SDS011;40525;55.926;21.066;2023-08-06T01:44:09;2.90;;;1.50;;
54627;SDS011;40525;55.926;21.066;2023-08-06T01:46:36;2.90;;;1.70;;
54627;SDS011;40525;55.926;21.066;2023-08-06T01:49:03;4.50;;;1.80;;
54627;SDS011;40525;55.926;21.066;2023-08-06T01:51:30;4.30;;;1.80;;
54627;SDS011;40525;55.926;21.066;2023-08-06T01:53:58;1.90;;;1.70;;
54627;SDS011;40525;55.926;21.066;2023-08-06T01:56:25;8.20;;;1.80;;
54627;SDS011;40525;55.926;21.066;2023-08-06T01:58:52;3.10;;;1.60;;
54627;SDS011;40525;55.926;21.066;2023-08-06T02:01:19;2.20;;;1.60;;
54627;SDS011;40525;55.926;21.066;2023-08-06T02:03:46;2.10;;;1.60;;
54627;SDS011;40525;55.926;21.066;2023-08-06T02:06:13;4.30;;;1.70;;
54627;SDS011;40525;55.926;21.066;2023-08-06T02:08:40;2.80;;;1.60;;
54627;SDS011;40525;55.926;21.066;2023-08-06T02:11:07;2.60;;;1.90;;
54627;SDS011;40525;55.926;21.066;2023-08-06T02:13:34;3.40;;;1.70;;
54627;SDS011;40525;55.926;21.066;2023-08-06T02:16:01;3.50;;;1.80;;
54627;SDS011;40525;55.926;21.066;2023-08-06T02:18:28;3.70;;;1.80;;
54627;SDS011;40525;55.926;21.066;2023-08-06T02:20:56;3.20;;;1.80;;
54627;SDS011;40525;55.926;21.066;2023-08-06T02:23:24;3.00;;;1.70;;
54627;SDS011;40525;55.926;21.066;2023-08-06T02:26:02;3.20;;;1.90;;
54627;SDS011;40525;55.926;21.066;2023-08-06T02:28:30;2.30;;;1.70;;
54627;SDS011;40525;55.926;21.066;2023-08-06T02:30:59;2.20;;;2.00;;
54627;SDS011;40525;55.926;21.066;2023-08-06T02:33:27;3.80;;;2.00;;
54627;SDS011;40525;55.926;21.066;2023-08-06T02:36:01;3.40;;;1.90;;
54627;SDS011;40525;55.926;21.066;2023-08-06T02:38:33;3.10;;;1.90;;
54627;SDS011;40525;55.926;21.066;2023-08-06T02:41:02;1.90;;;1.60;;
54627;SDS011;40525;55.926;21.066;2023-08-06T02:43:30;2.10;;;1.70;;
54627;SDS011;40525;55.926;21.066;2023-08-06T02:45:58;1.90;;;1.50;;
54627;SDS011;40525;55.926;21.066;2023-08-06T02:48:27;2.60;;;1.80;;
54627;SDS011;40525;55.926;21.066;2023-08-06T02:50:58;2.80;;;2.20;;
54627;SDS011;40525;55.926;21.066;2023-08-06T02:53:27;4.50;;;1.90;;
54627;SDS011;40525;55.926;21.066;2023-08-06T02:55:54;3.10;;;1.90;;
54627;SDS011;40525;55.926;21.066;2023-08-06T02:58:25;2.80;;;2.00;;
54627;SDS011;40525;55.926;21.066;2023-08-06T03:01:08;2.50;;;1.80;;
54627;SDS011;40525;55.926;21.066;2023-08-06T03:03:49;2.70;;;1.70;;
54627;SDS011;40525;55.926;21.066;2023-08-06T03:06:21;4.90;;;2.00;;
54627;SDS011;40525;55.926;21.066;2023-08-06T03:08:49;4.20;;;2.00;;
54627;SDS011;40525;55.926;21.066;2023-08-06T03:11:16;3.60;;;2.00;;
54627;SDS011;40525;55.926;21.066;2023-08-06T03:13:44;3.50;;;1.90;;
54627;SDS011;40525;55.926;21.066;2023-08-06T03:16:11;4.60;;;1.90;;
54627;SDS011;40525;55.926;21.066;2023-08-06T03:18:38;4.10;;;2.10;;
54627;SDS011;40525;55.926;21.066;2023-08-06T03:21:06;1.80;;;1.70;;
54627;SDS011;40525;55.926;21.066;2023-08-06T03:23:34;2.10;;;1.80;;
54627;SDS011;40525;55.926;21.066;2023-08-06T03:26:02;2.60;;;1.90;;
54627;SDS011;40525;55.926;21.066;2023-08-06T03:28:30;3.60;;;1.80;;
54627;SDS011;40525;55.926;21.066;2023-08-06T03:31:02;2.90;;;2.00;;
54627;SDS011;40525;55.926;21.066;2023-08-06T03:33:37;2.30;;;2.10;;
54627;SDS011;40525;55.926;21.066;2023-08-06T03:36:06;4.00;;;2.10;;
54627;SDS011;40525;55.926;21.066;2023-08-06T03:38:33;5.20;;;2.50;;
54627;SDS011;40525;55.926;21.066;2023-08-06T03:41:02;3.40;;;2.00;;
54627;SDS011;40525;55.926;21.066;2023-08-06T03:43:29;2.20;;;1.80;;
54627;SDS011;40525;55.926;21.066;2023-08-06T03:45:57;2.30;;;1.80;;
54627;SDS011;40525;55.926;21.066;2023-08-06T03:48:24;2.60;;;2.00;;
54627;SDS011;40525;55.926;21.066;2023-08-06T03:50:51;3.10;;;2.00;;
54627;SDS011;40525;55.926;21.066;2023-08-06T03:53:19;4.00;;;2.00;;
54627;SDS011;40525;55.926;21.066;2023-08-06T03:55:46;3.00;;;2.20;;
54627;SDS011;40525;55.926;21.066;2023-08-06T03:58:13;4.60;;;2.20;;
54627;SDS011;40525;55.926;21.066;2023-08-06T04:00:41;3.70;;;1.90;;
54627;SDS011;40525;55.926;21.066;2023-08-06T04:03:08;4.20;;;2.10;;
54627;SDS011;40525;55.926;21.066;2023-08-06T04:05:35;5.50;;;1.90;;
54627;SDS011;40525;55.926;21.066;2023-08-06T04:08:02;2.30;;;1.80;;
54627;SDS011;40525;55.926;21.066;2023-08-06T04:10:30;3.10;;;1.90;;
54627;SDS011;40525;55.926;21.066;2023-08-06T04:12:57;3.90;;;2.10;;
54627;SDS011;40525;55.926;21.066;2023-08-06T04:15:24;3.30;;;2.30;;
54627;SDS011;40525;55.926;21.066;2023-08-06T04:17:51;3.20;;;2.40;;
54627;SDS011;40525;55.926;21.066;2023-08-06T04:20:18;3.40;;;2.10;;
54627;SDS011;40525;55.926;21.066;2023-08-06T04:22:45;5.30;;;2.70;;
54627;SDS011;40525;55.926;21.066;2023-08-06T04:25:12;4.20;;;2.20;;
54627;SDS011;40525;55.926;21.066;2023-08-06T04:27:39;5.10;;;2.60;;
54627;SDS011;40525;55.926;21.066;2023-08-06T04:30:08;5.80;;;2.50;;
54627;SDS011;40525;55.926;21.066;2023-08-06T04:32:38;3.10;;;2.40;;
54627;SDS011;40525;55.926;21.066;2023-08-06T04:35:07;7.10;;;3.00;;
54627;SDS011;40525;55.926;21.066;2023-08-06T04:37:34;7.30;;;3.00;;
54627;SDS011;40525;55.926;21.066;2023-08-06T04:40:02;7.10;;;2.70;;
54627;SDS011;40525;55.926;21.066;2023-08-06T04:42:29;7.10;;;3.30;;
54627;SDS011;40525;55.926;21.066;2023-08-06T04:44:56;5.10;;;2.70;;
54627;SDS011;40525;55.926;21.066;2023-08-06T04:47:23;3.80;;;2.70;;
54627;SDS011;40525;55.926;21.066;2023-08-06T04:49:52;4.20;;;2.90;;
54627;SDS011;40525;55.926;21.066;2023-08-06T04:52:20;6.50;;;3.30;;
54627;SDS011;40525;55.926;21.066;2023-08-06T04:54:47;8.10;;;3.70;;
54627;SDS011;40525;55.926;21.066;2023-08-06T04:57:14;6.40;;;3.80;;
54627;SDS011;40525;55.926;21.066;2023-08-06T04:59:41;5.20;;;2.80;;
54627;SDS011;40525;55.926;21.066;2023-08-06T05:02:08;6.20;;;2.80;;
54627;SDS011;40525;55.926;21.066;2023-08-06T05:04:35;2.50;;;1.90;;
54627;SDS011;40525;55.926;21.066;2023-08-06T05:07:02;2.20;;;1.60;;
54627;SDS011;40525;55.926;21.066;2023-08-06T05:09:29;3.10;;;1.50;;
54627;SDS011;40525;55.926;21.066;2023-08-06T05:11:56;2.80;;;1.40;;
54627;SDS011;40525;55.926;21.066;2023-08-06T05:14:23;2.30;;;1.30;;
54627;SDS011;40525;55.926;21.066;2023-08-06T05:16:50;2.50;;;1.60;;
54627;SDS011;40525;55.926;21.066;2023-08-06T07:33:24;3.80;;;2.80;;
54627;SDS011;40525;55.926;21.066;2023-08-06T07:35:51;4.00;;;2.90;;
54627;SDS011;40525;55.926;21.066;2023-08-06T07:38:18;2.70;;;2.30;;
54627;SDS011;40525;55.926;21.066;2023-08-06T07:40:47;3.30;;;2.20;;
54627;SDS011;40525;55.926;21.066;2023-08-06T07:43:14;2.60;;;2.40;;
54627;SDS011;40525;55.926;21.066;2023-08-06T07:45:41;2.50;;;2.30;;
54627;SDS011;40525;55.926;21.066;2023-08-06T07:48:08;4.00;;;2.40;;
54627;SDS011;40525;55.926;21.066;2023-08-06T07:50:35;2.50;;;2.20;;
54627;SDS011;40525;55.926;21.066;2023-08-06T07:53:02;2.40;;;2.10;;
54627;SDS011;40525;55.926;21.066;2023-08-06T07:55:30;5.60;;;2.80;;
54627;SDS011;40525;55.926;21.066;2023-08-06T07:57:57;2.50;;;2.30;;
54627;SDS011;40525;55.926;21.066;2023-08-06T08:00:26;4.80;;;2.60;;
54627;SDS011;40525;55.926;21.066;2023-08-06T08:02:53;4.20;;;2.90;;
54627;SDS011;40525;55.926;21.066;2023-08-06T08:05:21;4.20;;;2.60;;
54627;SDS011;40525;55.926;21.066;2023-08-06T08:07:48;3.60;;;2.90;;
54627;SDS011;40525;55.926;21.066;2023-08-06T08:10:15;3.20;;;2.90;;
54627;SDS011;40525;55.926;21.066;2023-08-06T08:12:42;4.10;;;2.80;;
54627;SDS011;40525;55.926;21.066;2023-08-06T08:15:09;3.50;;;3.00;;
54627;SDS011;40525;55.926;21.066;2023-08-06T08:17:36;4.40;;;3.10;;
54627;SDS011;40525;55.926;21.066;2023-08-06T08:20:03;3.70;;;3.20;;
54627;SDS011;40525;55.926;21.066;2023-08-06T08:22:31;3.40;;;3.00;;
54627;SDS011;40525;55.926;21.066;2023-08-06T08:24:58;3.60;;;3.20;;
54627;SDS011;40525;55.926;21.066;2023-08-06T08:27:25;3.90;;;3.50;;
54627;SDS011;40525;55.926;21.066;2023-08-06T08:29:52;4.30;;;3.40;;
54627;SDS011;40525;55.926;21.066;2023-08-06T08:32:19;5.30;;;3.60;;
54627;SDS011;40525;55.926;21.066;2023-08-06T08:34:46;4.20;;;3.80;;
54627;SDS011;40525;55.926;21.066;2023-08-06T08:37:13;6.30;;;3.90;;
54627;SDS011;40525;55.926;21.066;2023-08-06T08:39:40;4.70;;;3.50;;
54627;SDS011;40525;55.926;21.066;2023-08-06T08:42:08;7.60;;;3.90;;
54627;SDS011;40525;55.926;21.066;2023-08-06T08:44:36;5.20;;;4.00;;
54627;SDS011;40525;55.926;21.066;2023-08-06T08:47:10;5.20;;;3.50;;
54627;SDS011;40525;55.926;21.066;2023-08-06T08:49:37;6.50;;;4.80;;
54627;SDS011;40525;55.926;21.066;2023-08-06T08:52:05;5.50;;;4.30;;
54627;SDS011;40525;55.926;21.066;2023-08-06T08:54:37;6.20;;;4.60;;
54627;SDS011;40525;55.926;21.066;2023-08-06T08:57:05;5.80;;;5.10;;
54627;SDS011;40525;55.926;21.066;2023-08-06T08:59:33;5.60;;;4.50;;
54627;SDS011;40525;55.926;21.066;2023-08-06T09:02:01;6.70;;;5.60;;
54627;SDS011;40525;55.926;21.066;2023-08-06T09:04:29;5.70;;;5.20;;
54627;SDS011;40525;55.926;21.066;2023-08-06T09:07:02;5.60;;;5.00;;
54627;SDS011;40525;55.926;21.066;2023-08-06T09:09:34;6.30;;;5.50;;
54627;SDS011;40525;55.926;21.066;2023-08-06T09:12:11;6.60;;;5.20;;
54627;SDS011;40525;55.926;21.066;2023-08-06T09:14:42;7.00;;;5.40;;
54627;SDS011;40525;55.926;21.066;2023-08-06T09:17:09;8.70;;;5.80;;
54627;SDS011;40525;55.926;21.066;2023-08-06T09:19:42;7.80;;;6.00;;
54627;SDS011;40525;55.926;21.066;2023-08-06T09:22:14;8.20;;;5.70;;
54627;SDS011;40525;55.926;21.066;2023-08-06T09:24:42;6.70;;;5.50;;
54627;SDS011;40525;55.926;21.066;2023-08-06T09:27:13;6.70;;;5.90;;
54627;SDS011;40525;55.926;21.066;2023-08-06T09:29:41;7.00;;;6.30;;
54627;SDS011;40525;55.926;21.066;2023-08-06T09:32:09;7.10;;;6.40;;
54627;SDS011;40525;55.926;21.066;2023-08-06T09:34:38;7.00;;;6.10;;
54627;SDS011;40525;55.926;21.066;2023-08-06T09:37:07;6.80;;;5.50;;
54627;SDS011;40525;55.926;21.066;2023-08-06T09:39:39;8.40;;;7.10;;
54627;SDS011;40525;55.926;21.066;2023-08-06T09:42:09;7.30;;;6.50;;
54627;SDS011;40525;55.926;21.066;2023-08-06T09:44:36;7.70;;;6.80;;
54627;SDS011;40525;55.926;21.066;2023-08-06T09:47:07;8.10;;;7.30;;
54627;SDS011;40525;55.926;21.066;2023-08-06T09:52:01;9.60;;;7.60;;
54627;SDS011;40525;55.926;21.066;2023-08-06T09:54:28;8.20;;;7.40;;
54627;SDS011;40525;55.926;21.066;2023-08-06T09:56:56;9.90;;;7.30;;
54627;SDS011;40525;55.926;21.066;2023-08-06T09:59:24;8.00;;;7.30;;
54627;SDS011;40525;55.926;21.066;2023-08-06T10:01:51;7.50;;;6.80;;
54627;SDS011;40525;55.926;21.066;2023-08-06T10:04:19;7.50;;;6.80;;
54627;SDS011;40525;55.926;21.066;2023-08-06T10:06:51;26.20;;;16.90;;
54627;SDS011;40525;55.926;21.066;2023-08-06T10:09:19;15.20;;;11.30;;
54627;SDS011;40525;55.926;21.066;2023-08-06T10:11:49;12.50;;;8.30;;
54627;SDS011;40525;55.926;21.066;2023-08-06T10:14:23;14.60;;;8.50;;
54627;SDS011;40525;55.926;21.066;2023-08-06T10:16:54;9.80;;;7.30;;
54627;SDS011;40525;55.926;21.066;2023-08-06T10:19:24;8.70;;;7.50;;
54627;SDS011;40525;55.926;21.066;2023-08-06T10:24:49;7.80;;;7.00;;
54627;SDS011;40525;55.926;21.066;2023-08-06T10:28:01;9.10;;;8.10;;
54627;SDS011;40525;55.926;21.066;2023-08-06T10:32:48;7.80;;;6.90;;
54627;SDS011;40525;55.926;21.066;2023-08-06T10:38:11;7.80;;;7.10;;
54627;SDS011;40525;55.926;21.066;2023-08-06T10:43:25;9.10;;;6.70;;
54627;SDS011;40525;55.926;21.066;2023-08-06T10:45:57;8.70;;;6.70;;
54627;SDS011;40525;55.926;21.066;2023-08-06T10:48:33;7.30;;;6.30;;
54627;SDS011;40525;55.926;21.066;2023-08-06T10:51:03;7.70;;;7.00;;
54627;SDS011;40525;55.926;21.066;2023-08-06T10:53:31;8.80;;;7.20;;
54627;SDS011;40525;55.926;21.066;2023-08-06T10:56:21;7.90;;;7.20;;
54627;SDS011;40525;55.926;21.066;2023-08-06T10:58:53;7.90;;;7.10;;
54627;SDS011;40525;55.926;21.066;2023-08-06T11:01:26;7.50;;;6.80;;
54627;SDS011;40525;55.926;21.066;2023-08-06T11:03:57;7.40;;;6.70;;
54627;SDS011;40525;55.926;21.066;2023-08-06T11:06:29;7.80;;;7.00;;
54627;SDS011;40525;55.926;21.066;2023-08-06T11:08:56;7.90;;;7.00;;
54627;SDS011;40525;55.926;21.066;2023-08-06T11:11:23;7.40;;;6.70;;
54627;SDS011;40525;55.926;21.066;2023-08-06T11:13:50;7.80;;;6.40;;
54627;SDS011;40525;55.926;21.066;2023-08-06T11:16:19;7.30;;;6.60;;
54627;SDS011;40525;55.926;21.066;2023-08-06T11:18:48;7.80;;;7.10;;
54627;SDS011;40525;55.926;21.066;2023-08-06T11:21:18;7.70;;;7.00;;
54627;SDS011;40525;55.926;21.066;2023-08-06T11:23:46;9.30;;;7.50;;
54627;SDS011;40525;55.926;21.066;2023-08-06T11:26:18;7.90;;;7.20;;
54627;SDS011;40525;55.926;21.066;2023-08-06T11:28:46;7.60;;;6.90;;
54627;SDS011;40525;55.926;21.066;2023-08-06T11:31:22;7.90;;;7.20;;
54627;SDS011;40525;55.926;21.066;2023-08-06T11:33:50;7.80;;;7.10;;
54627;SDS011;40525;55.926;21.066;2023-08-06T11:36:28;9.00;;;7.00;;
54627;SDS011;40525;55.926;21.066;2023-08-06T11:38:57;9.10;;;7.00;;
54627;SDS011;40525;55.926;21.066;2023-08-06T11:41:25;7.80;;;7.20;;
54627;SDS011;40525;55.926;21.066;2023-08-06T11:43:54;8.30;;;7.30;;
54627;SDS011;40525;55.926;21.066;2023-08-06T11:46:22;7.90;;;7.20;;
54627;SDS011;40525;55.926;21.066;2023-08-06T11:48:56;7.80;;;7.00;;
54627;SDS011;40525;55.926;21.066;2023-08-06T11:51:25;7.70;;;6.90;;
54627;SDS011;40525;55.926;21.066;2023-08-06T11:53:56;10.70;;;6.70;;
54627;SDS011;40525;55.926;21.066;2023-08-06T11:56:25;7.50;;;6.90;;
54627;SDS011;40525;55.926;21.066;2023-08-06T11:58:54;7.50;;;6.80;;
54627;SDS011;40525;55.926;21.066;2023-08-06T12:01:21;7.70;;;6.80;;
54627;SDS011;40525;55.926;21.066;2023-08-06T12:03:48;7.70;;;7.00;;
54627;SDS011;40525;55.926;21.066;2023-08-06T12:06:15;7.60;;;6.90;;
54627;SDS011;40525;55.926;21.066;2023-08-06T12:08:42;7.30;;;6.60;;
54627;SDS011;40525;55.926;21.066;2023-08-06T12:11:09;7.50;;;6.80;;
54627;SDS011;40525;55.926;21.066;2023-08-06T12:13:36;7.40;;;6.80;;
54627;SDS011;40525;55.926;21.066;2023-08-06T12:16:03;7.30;;;6.70;;
54627;SDS011;40525;55.926;21.066;2023-08-06T12:18:30;7.60;;;6.90;;
54627;SDS011;40525;55.926;21.066;2023-08-06T12:20:57;7.60;;;6.70;;
54627;SDS011;40525;55.926;21.066;2023-08-06T12:23:24;7.70;;;6.90;;
54627;SDS011;40525;55.926;21.066;2023-08-06T12:25:51;7.90;;;7.00;;
54627;SDS011;40525;55.926;21.066;2023-08-06T12:28:19;9.10;;;7.20;;
54627;SDS011;40525;55.926;21.066;2023-08-06T12:30:49;8.60;;;7.60;;
54627;SDS011;40525;55.926;21.066;2023-08-06T12:33:17;9.90;;;7.00;;
54627;SDS011;40525;55.926;21.066;2023-08-06T12:35:45;7.80;;;6.90;;
54627;SDS011;40525;55.926;21.066;2023-08-06T12:38:12;8.10;;;7.30;;
54627;SDS011;40525;55.926;21.066;2023-08-06T12:40:40;7.70;;;7.00;;
54627;SDS011;40525;55.926;21.066;2023-08-06T12:43:09;7.40;;;6.80;;
54627;SDS011;40525;55.926;21.066;2023-08-06T12:45:36;9.00;;;7.80;;
54627;SDS011;40525;55.926;21.066;2023-08-06T12:48:03;8.40;;;7.50;;
54627;SDS011;40525;55.926;21.066;2023-08-06T12:50:30;8.60;;;7.70;;
54627;SDS011;40525;55.926;21.066;2023-08-06T12:53:00;7.60;;;6.90;;
54627;SDS011;40525;55.926;21.066;2023-08-06T12:55:27;8.20;;;7.40;;
54627;SDS011;40525;55.926;21.066;2023-08-06T12:57:58;8.00;;;7.30;;
54627;SDS011;40525;55.926;21.066;2023-08-06T13:00:28;9.80;;;7.50;;
54627;SDS011;40525;55.926;21.066;2023-08-06T13:02:55;7.80;;;7.00;;
54627;SDS011;40525;55.926;21.066;2023-08-06T13:05:22;8.50;;;7.70;;
54627;SDS011;40525;55.926;21.066;2023-08-06T13:07:49;8.40;;;7.70;;
54627;SDS011;40525;55.926;21.066;2023-08-06T13:10:16;7.30;;;6.60;;
54627;SDS011;40525;55.926;21.066;2023-08-06T13:12:43;9.20;;;7.80;;
54627;SDS011;40525;55.926;21.066;2023-08-06T13:15:10;9.70;;;8.70;;
54627;SDS011;40525;55.926;21.066;2023-08-06T13:17:37;12.90;;;11.70;;
54627;SDS011;40525;55.926;21.066;2023-08-06T13:20:05;8.50;;;7.70;;
54627;SDS011;40525;55.926;21.066;2023-08-06T13:22:32;8.10;;;7.30;;
54627;SDS011;40525;55.926;21.066;2023-08-06T13:24:59;9.80;;;7.60;;
54627;SDS011;40525;55.926;21.066;2023-08-06T13:27:26;12.20;;;8.00;;
54627;SDS011;40525;55.926;21.066;2023-08-06T13:29:53;11.40;;;6.90;;
54627;SDS011;40525;55.926;21.066;2023-08-06T13:32:20;7.70;;;7.00;;
54627;SDS011;40525;55.926;21.066;2023-08-06T13:34:47;9.60;;;7.10;;
54627;SDS011;40525;55.926;21.066;2023-08-06T13:37:14;9.00;;;7.30;;
54627;SDS011;40525;55.926;21.066;2023-08-06T13:39:41;9.60;;;8.70;;
54627;SDS011;40525;55.926;21.066;2023-08-06T13:42:08;9.10;;;7.50;;
54627;SDS011;40525;55.926;21.066;2023-08-06T13:44:35;8.60;;;7.50;;
54627;SDS011;40525;55.926;21.066;2023-08-06T13:47:03;8.60;;;7.80;;
54627;SDS011;40525;55.926;21.066;2023-08-06T13:49:30;10.50;;;8.30;;
54627;SDS011;40525;55.926;21.066;2023-08-06T13:52:14;8.90;;;7.30;;
54627;SDS011;40525;55.926;21.066;2023-08-06T13:54:48;13.40;;;11.60;;
54627;SDS011;40525;55.926;21.066;2023-08-06T13:57:15;9.10;;;8.30;;
54627;SDS011;40525;55.926;21.066;2023-08-06T13:59:44;8.00;;;7.20;;
54627;SDS011;40525;55.926;21.066;2023-08-06T14:02:11;8.60;;;7.50;;
54627;SDS011;40525;55.926;21.066;2023-08-06T14:04:38;8.50;;;7.10;;
54627;SDS011;40525;55.926;21.066;2023-08-06T14:07:06;9.70;;;7.40;;
54627;SDS011;40525;55.926;21.066;2023-08-06T14:09:33;7.40;;;6.50;;
54627;SDS011;40525;55.926;21.066;2023-08-06T14:12:01;7.40;;;6.60;;
54627;SDS011;40525;55.926;21.066;2023-08-06T14:14:29;8.10;;;7.00;;
54627;SDS011;40525;55.926;21.066;2023-08-06T14:16:56;7.50;;;6.90;;
54627;SDS011;40525;55.926;21.066;2023-08-06T14:19:24;8.90;;;6.90;;
54627;SDS011;40525;55.926;21.066;2023-08-06T14:21:51;8.40;;;6.20;;
54627;SDS011;40525;55.926;21.066;2023-08-06T14:24:18;8.00;;;6.60;;
54627;SDS011;40525;55.926;21.066;2023-08-06T14:26:45;6.90;;;6.20;;
54627;SDS011;40525;55.926;21.066;2023-08-06T14:29:12;7.50;;;6.40;;
54627;SDS011;40525;55.926;21.066;2023-08-06T14:31:40;7.80;;;6.10;;
54627;SDS011;40525;55.926;21.066;2023-08-06T14:34:07;7.20;;;6.00;;
54627;SDS011;40525;55.926;21.066;2023-08-06T14:36:35;8.50;;;6.50;;
54627;SDS011;40525;55.926;21.066;2023-08-06T14:39:01;6.60;;;6.00;;
54627;SDS011;40525;55.926;21.066;2023-08-06T14:41:29;6.20;;;5.40;;
54627;SDS011;40525;55.926;21.066;2023-08-06T14:43:56;8.60;;;6.30;;
54627;SDS011;40525;55.926;21.066;2023-08-06T14:46:22;6.50;;;5.70;;
54627;SDS011;40525;55.926;21.066;2023-08-06T14:48:50;6.20;;;5.60;;
54627;SDS011;40525;55.926;21.066;2023-08-06T14:51:17;6.30;;;5.70;;
54627;SDS011;40525;55.926;21.066;2023-08-06T14:53:46;7.50;;;6.30;;
54627;SDS011;40525;55.926;21.066;2023-08-06T14:56:13;7.90;;;6.00;;
54627;SDS011;40525;55.926;21.066;2023-08-06T14:58:40;7.30;;;6.20;;
54627;SDS011;40525;55.926;21.066;2023-08-06T15:01:08;6.50;;;5.80;;
54627;SDS011;40525;55.926;21.066;2023-08-06T15:03:35;7.90;;;5.80;;
54627;SDS011;40525;55.926;21.066;2023-08-06T15:06:02;6.90;;;6.10;;
54627;SDS011;40525;55.926;21.066;2023-08-06T15:08:29;6.60;;;6.00;;
54627;SDS011;40525;55.926;21.066;2023-08-06T15:10:56;8.40;;;6.20;;
54627;SDS011;40525;55.926;21.066;2023-08-06T15:13:23;6.50;;;5.90;;
54627;SDS011;40525;55.926;21.066;2023-08-06T15:15:50;6.30;;;5.70;;
54627;SDS011;40525;55.926;21.066;2023-08-06T15:18:17;20.40;;;15.60;;
54627;SDS011;40525;55.926;21.066;2023-08-06T15:20:45;10.50;;;7.20;;
54627;SDS011;40525;55.926;21.066;2023-08-06T15:23:13;9.70;;;6.50;;
54627;SDS011;40525;55.926;21.066;2023-08-06T15:25:41;6.80;;;5.90;;
54627;SDS011;40525;55.926;21.066;2023-08-06T15:28:07;6.80;;;6.10;;
54627;SDS011;40525;55.926;21.066;2023-08-06T15:30:34;8.70;;;5.80;;
54627;SDS011;40525;55.926;21.066;2023-08-06T15:33:01;8.50;;;6.30;;
54627;SDS011;40525;55.926;21.066;2023-08-06T15:35:29;8.40;;;6.10;;
54627;SDS011;40525;55.926;21.066;2023-08-06T15:37:56;6.00;;;5.50;;
54627;SDS011;40525;55.926;21.066;2023-08-06T15:40:23;7.00;;;5.70;;
54627;SDS011;40525;55.926;21.066;2023-08-06T15:42:50;6.50;;;5.80;;
54627;SDS011;40525;55.926;21.066;2023-08-06T15:45:17;5.50;;;5.10;;
54627;SDS011;40525;55.926;21.066;2023-08-06T15:47:44;6.10;;;5.50;;
54627;SDS011;40525;55.926;21.066;2023-08-06T15:50:11;7.10;;;5.70;;
54627;SDS011;40525;55.926;21.066;2023-08-06T15:52:38;7.10;;;5.80;;
54627;SDS011;40525;55.926;21.066;2023-08-06T15:55:05;7.10;;;5.20;;
54627;SDS011;40525;55.926;21.066;2023-08-06T15:57:33;6.50;;;5.40;;
54627;SDS011;40525;55.926;21.066;2023-08-06T16:00:01;6.70;;;5.70;;
54627;SDS011;40525;55.926;21.066;2023-08-06T16:02:36;9.10;;;5.90;;
54627;SDS011;40525;55.926;21.066;2023-08-06T16:05:04;6.70;;;5.10;;
54627;SDS011;40525;55.926;21.066;2023-08-06T16:07:32;6.30;;;5.60;;
54627;SDS011;40525;55.926;21.066;2023-08-06T16:09:59;6.30;;;5.60;;
54627;SDS011;40525;55.926;21.066;2023-08-06T16:12:26;8.50;;;5.40;;
54627;SDS011;40525;55.926;21.066;2023-08-06T16:14:53;6.50;;;5.90;;
54627;SDS011;40525;55.926;21.066;2023-08-06T16:17:20;6.80;;;5.50;;
54627;SDS011;40525;55.926;21.066;2023-08-06T16:19:49;8.00;;;5.50;;
54627;SDS011;40525;55.926;21.066;2023-08-06T16:22:20;6.20;;;5.60;;
54627;SDS011;40525;55.926;21.066;2023-08-06T16:24:47;6.90;;;5.60;;
54627;SDS011;40525;55.926;21.066;2023-08-06T16:27:15;6.10;;;5.60;;
54627;SDS011;40525;55.926;21.066;2023-08-06T16:29:42;6.90;;;5.40;;
54627;SDS011;40525;55.926;21.066;2023-08-06T16:32:11;5.90;;;5.30;;
54627;SDS011;40525;55.926;21.066;2023-08-06T16:34:38;5.50;;;5.00;;
54627;SDS011;40525;55.926;21.066;2023-08-06T16:37:05;9.00;;;6.10;;
54627;SDS011;40525;55.926;21.066;2023-08-06T16:39:32;5.00;;;4.60;;
54627;SDS011;40525;55.926;21.066;2023-08-06T16:41:59;8.60;;;4.90;;
54627;SDS011;40525;55.926;21.066;2023-08-06T16:44:29;5.30;;;4.80;;
54627;SDS011;40525;55.926;21.066;2023-08-06T16:46:57;7.10;;;4.80;;
54627;SDS011;40525;55.926;21.066;2023-08-06T16:49:26;6.10;;;5.30;;
54627;SDS011;40525;55.926;21.066;2023-08-06T16:51:53;6.90;;;5.20;;
54627;SDS011;40525;55.926;21.066;2023-08-06T16:54:20;5.70;;;5.10;;
54627;SDS011;40525;55.926;21.066;2023-08-06T16:56:46;6.20;;;5.00;;
54627;SDS011;40525;55.926;21.066;2023-08-06T16:59:13;5.40;;;5.00;;
54627;SDS011;40525;55.926;21.066;2023-08-06T17:01:40;5.70;;;5.20;;
54627;SDS011;40525;55.926;21.066;2023-08-06T17:04:07;6.40;;;5.30;;
54627;SDS011;40525;55.926;21.066;2023-08-06T17:06:35;5.50;;;5.00;;
54627;SDS011;40525;55.926;21.066;2023-08-06T17:09:02;7.50;;;5.10;;
54627;SDS011;40525;55.926;21.066;2023-08-06T17:11:30;8.60;;;5.10;;